Aaron Johnson

Olheiro-Chefe - Los Angeles Football Club
24 Jul 2027
Sábado
Processo

Personalidade

Adaptabilidade (3) Ambição (19) Controvérsia (19) Lealdade (12) Pressão (13) Profissionalismo (2) Espírito Esportivo (12) Temperamento (16)

Perfil

Estilo de Treinamento Democrático
Licença Nacional A
Determinação 11
Gestão de Pessoas 9
Motivação 5
Disciplina 12
Satisfação no Trabalho
100%
Fadiga
0%
Função Olheiro-Chefe
Salário 55.2K p/s
Contrato 14.03.2029

Desempenho

Comportamento Bom
Eficácia do Treinamento
50%
Desenvolvimento do Jogador
45%
Prevenção de Lesões
35%
Implementação Tática
60%

Eventos Recentes

Avaliou um jogador agora
Participou de uma reunião de recrutamento agora
Recomendou um alvo de transferência agora
Participou de uma reunião de recrutamento 7d atrás
Recomendou um alvo de transferência 7d atrás
Participou de uma reunião de recrutamento 14d atrás
Participou de uma reunião de recrutamento 14d atrás
Avaliou um jogador 14d atrás

Monitorando agora

142
Jogador Clube Status Habilidade Confiança Observado Última observação Último voto
Felipé Hernández DC United Ativo 108 / 101 58% 1 19.07.2027 Aprovar
Edwin Asamoah Berekum Chelsea Ativo 73 / 93 40% 1 19.07.2027 -
Joel McGregor Swindon Town Ativo 96 / 89 40% 1 19.07.2027 -
Sascha Britschgi Catanzaro Ativo 107 / 131 40% 1 07.07.2027 -
Jorge Ruvalcaba New York Red Bulls Ativo 124 / 111 51% 1 01.03.2027 -
Lucas Bergvall Tottenham Ativo 138 / 133 40% 1 22.02.2027 -
Camilo Durán Bloemfontein Celtic Ativo 105 / 113 40% 7 12.02.2027 -
Marezi Portsmouth Ativo 112 / 119 40% 3 12.02.2027 -
Dom Ballard Leyton Orient Ativo 103 / 135 40% 3 12.02.2027 -
Jovon Makama Norwich City Ativo 109 / 122 40% 1 12.02.2027 -
Luca Bombino Stoke City Ativo 101 / 106 40% 2 10.02.2027 -
Sam Greenwood Bristol City Ativo 124 / 140 40% 2 10.02.2027 -
Tommy Conway Middlesbrough Ativo 137 / 124 40% 2 10.02.2027 Mais informações
Maeson King Blackpool Ativo 88 / 97 40% 1 10.02.2027 -
Yousef Salech Cardiff City Ativo 111 / 115 40% 2 09.02.2027 -
Aune Heggebø West Bromwich Albion Ativo 113 / 139 40% 2 09.02.2027 -
Rumarn Burrell Queens Park Rangers Ativo 135 / 115 40% 2 08.02.2027 -
Gladson Sulemana Liberty Professionals Ativo 103 / 87 40% 2 06.02.2027 -
Patrick Agyemang Derby County Ativo 129 / 111 40% 2 06.02.2027 -
Rhys Chadwick Gillingham Ativo 98 / 108 40% 2 06.02.2027 -
Abraham Paintsil Hasaacas Ativo 85 / 89 40% 1 04.02.2027 -
Surprise Manthosi Polokwane City Ativo 96 / 116 40% 1 04.02.2027 Mais informações
Peter Shalulile Mamelodi Sundowns Ativo 113 / 110 40% 2 02.02.2027 -
Mathias Jørgensen Blackburn Rovers Ativo 121 / 118 40% 3 02.02.2027 -
Karlan Grant West Bromwich Albion Ativo 134 / 139 40% 2 30.01.2027 -
Zian Flemming Ipswich Town Ativo 122 / 139 40% 2 30.01.2027 -
Callum Lang Preston Ativo 99 / 112 40% 2 29.01.2027 -
Josh Coburn Millwall Ativo 114 / 141 40% 2 29.01.2027 -
Dale Taylor Blackpool Ativo 129 / 117 40% 2 28.01.2027 -
Tyreece Campbell Charlton Athletic Ativo 98 / 107 40% 2 28.01.2027 -
Jake Batty Bristol Rovers Ativo 116 / 120 40% 1 27.01.2027 -
Luther Tau SuperSport United Ativo 110 / 96 40% 7 24.01.2027 -
Stephen Odey Ittihad Ativo 95 / 116 40% 4 24.01.2027 -
Luka Vušković Tottenham Ativo 143 / 164 40% 1 21.01.2027 -
Sam Curtis Swindon Town Ativo 115 / 124 40% 1 21.01.2027 -
Assane Diao Como Ativo 143 / 147 40% 1 21.01.2027 -
Cameron Archer Southampton Ativo 119 / 114 40% 1 21.01.2027 -
Joe Gelhardt Hull City Ativo 129 / 118 40% 2 20.01.2027 -
Richard Koné Queens Park Rangers Ativo 131 / 145 40% 1 20.01.2027 -
Elijah Adebayo Luton Town Ativo 136 / 125 40% 3 18.01.2027 -
Harvey Blair Portsmouth Ativo 132 / 121 40% 4 18.01.2027 -
Callum O'Hare Sheffield United Ativo 133 / 109 40% 1 16.01.2027 -
Tyrese Campbell Sheffield United Ativo 123 / 105 40% 2 15.01.2027 -
Jay Stansfield Birmingham Ativo 140 / 146 40% 1 08.01.2027 -
Etiosa Ighodaro Kaizer Chiefs Ativo 115 / 93 40% 2 07.01.2027 -
Lamine Cissé Peterborough United Ativo 135 / 133 40% 2 05.01.2027 -
Aidomo Emakhu Oxford United Ativo 124 / 106 40% 1 03.01.2027 -
Mathias Kvistgaarden Norwich City Ativo 128 / 107 40% 1 28.12.2026 -
Bojan Radulović Huddersfield Town Ativo 128 / 119 40% 4 26.12.2026 -
Adam Idah Swansea City Ativo 140 / 106 40% 1 25.12.2026 -
Dario Vizinger NK Maribor Ativo 133 / 106 40% 2 23.12.2026 -
Radek Šiler Podbrezova Ativo 96 / 125 40% 1 23.12.2026 -
Iqraam Rayners Mamelodi Sundowns Ativo 114 / 147 40% 4 22.12.2026 -
Arthur Gomes Dinamo Moscow Ativo 122 / 132 40% 1 21.12.2026 -
Armstrong Oko-Flex Levski Ativo 117 / 130 40% 1 21.12.2026 -
Korede Osundina Casa Pia Ativo 120 / 141 40% 6 20.12.2026 -
Alonso Martínez NK Osijek Ativo 100 / 138 40% 1 20.12.2026 -
Jack Vale Spartak Myjava Ativo 90 / 109 40% 1 19.12.2026 -
Fashion Sakala MC Alger Ativo 143 / 115 40% 2 18.12.2026 -
Samuel Kalu Botev Plovdiv Ativo 121 / 99 40% 2 16.12.2026 -
Giacomo Raspadori Atalanta Ativo 158 / 160 40% 1 15.12.2026 -
Juan Manuel Boselli Krasnodar Ativo 125 / 110 40% 1 14.12.2026 -
Jan Hubocan Ferencvaros Ativo 122 / 141 40% 1 14.12.2026 -
Talles Magno New York City Ativo 118 / 117 40% 3 12.12.2026 -
Matías Fernández-Pardo Newcastle United Ativo 149 / 126 40% 1 12.12.2026 -
Jesus Ferreira Seattle Sounders Ativo 141 / 125 40% 4 11.12.2026 -
Luther Ngcobo Ajax Cape Town Ativo 119 / 88 40% 1 11.12.2026 -
Matai Akinmboni Bournemouth Ativo 84 / 92 40% 1 09.12.2026 -
Brayan Gil Baltika Ativo 122 / 122 40% 2 08.12.2026 -
Dejan Joveljić Seattle Sounders Ativo 121 / 142 40% 2 06.12.2026 -
Denzel Jubitana Neftchi Ativo 110 / 108 40% 1 06.12.2026 -
Enzo Cabrera AE Kition Ativo 124 / 130 40% 1 05.12.2026 -
Mandla Mokotjo SuperSport United Ativo 101 / 103 40% 1 04.12.2026 -
Yahaya Ibrahim Plateau United Ativo 72 / 105 40% 1 04.12.2026 -
Luca Langoni New England Revolution Ativo 130 / 126 40% 5 02.12.2026 -
Marin Benko Zadar Ativo 115 / 116 40% 3 01.12.2026 -
Lewis McCann Fleetwood Town Ativo 90 / 104 40% 2 30.11.2026 -
Tamerlan Musaev CSKA Moscow Ativo 134 / 106 40% 1 30.11.2026 -
Prosper Obah Shakhtar Ativo 117 / 110 40% 1 30.11.2026 -
Daniel Kelly Derby County Ativo 106 / 123 40% 1 29.11.2026 -
Breel Embolo Atlanta United FC Ativo 126 / 130 40% 5 27.11.2026 -
Victor Olatunji Real Salt Lake Ativo 107 / 127 40% 1 27.11.2026 -
Issa Yusuf Shooting Stars Ativo 96 / 94 40% 1 27.11.2026 -
Law McCabe Middlesbrough Ativo 113 / 118 40% 1 26.11.2026 -
Bénie Traoré New York City Ativo 132 / 138 40% 7 24.11.2026 -
Diego León Manchester United Ativo 121 / 93 40% 1 24.11.2026 -
Alexander Aravena Portland Timbers Ativo 129 / 116 40% 3 21.11.2026 -
Salah Mohsen El Masry Ativo 107 / 121 40% 1 21.11.2026 -
Kévin Denkey FC Cincinnati Ativo 130 / 119 40% 5 19.11.2026 -
Mbekezeli Mbokazi Chicago Fire Ativo 131 / 119 40% 1 18.11.2026 -
Stephen Humphrys Bradford City Ativo 122 / 131 40% 1 16.11.2026 -
Nikos Karelis Sliema Wanderers Ativo 114 / 88 40% 1 13.11.2026 -
Duncan McGuire Houston Dynamo Ativo 119 / 121 40% 2 11.11.2026 -
Kelvin Yeboah Minnesota United FC Ativo 118 / 140 40% 3 10.11.2026 -
Veljko Birmančević Ferencvaros Ativo 132 / 137 40% 3 10.11.2026 -
Emmanuel Akpan Bendel Insurance Ativo 67 / 95 40% 1 09.11.2026 -
Maurice Malone Minnesota United FC Ativo 130 / 126 40% 2 07.11.2026 -
Simphiwe Selepe Orlando Pirates Ativo 111 / 103 40% 1 04.11.2026 Mais informações
Ibrahim Sabiu Bendel Insurance Ativo 86 / 72 40% 1 04.11.2026 -
Erik Botheim Viking Ativo 119 / 116 40% 1 02.11.2026 -
Leonardo Campana New England Revolution Ativo 139 / 112 40% 3 31.10.2026 -
Friday Ubong Hearts of Oak Ativo 105 / 116 40% 1 31.10.2026 -
Bongokuhle Hlongwane Minnesota United FC Ativo 136 / 133 40% 2 29.10.2026 -
Indiana Vassilev Philadelphia Union Ativo 110 / 110 40% 2 29.10.2026 -
Xavier Biscayzacú Sporting CP Ativo 111 / 107 40% 1 27.10.2026 -
Martín Ojeda Orlando City Ativo 140 / 133 40% 5 24.10.2026 -
Liel Abada Charlotte Football Club Ativo 129 / 133 40% 5 24.10.2026 -
Tadeo Allende Inter Miami CF Ativo 131 / 131 40% 3 22.10.2026 -
Victor Adeboyejo El Masry Ativo 106 / 108 40% 1 21.10.2026 -
Sam Nombe Milton Keynes Dons Ativo 111 / 125 40% 1 21.10.2026 -
Josh Sargent Toronto FC Ativo 140 / 123 40% 3 15.10.2026 -
David Miculescu FCSB Ativo 139 / 139 40% 1 15.10.2026 -
Wessam Abou Ali Columbus Crew Ativo 139 / 137 40% 2 14.10.2026 -
Morgan Guilavogui Real Salt Lake Ativo 134 / 139 40% 4 13.10.2026 -
Mateusz Bogusz Houston Dynamo Ativo 120 / 111 40% 2 11.10.2026 -
Sunday Megwo Abia Warriors Ativo 97 / 115 40% 3 04.10.2026 -
João Klauss LA Galaxy Ativo 127 / 134 40% 2 01.10.2026 -
Matheus Nascimento Houston Dynamo Ativo 117 / 108 40% 2 26.09.2026 -
Troy Parrott Betis Ativo 122 / 144 40% 1 25.09.2026 -
Tashreeq Matthews Mamelodi Sundowns Ativo 116 / 131 40% 1 22.09.2026 -
Louis Munteanu DC United Ativo 130 / 126 40% 1 21.09.2026 -
Abubakar Garba Nasarawa United Ativo 74 / 107 40% 1 21.09.2026 -
Bruno Damiani Philadelphia Union Ativo 102 / 103 40% 1 19.09.2026 -
Derrick Etienne Jr. Toronto FC Ativo 110 / 128 40% 1 19.09.2026 -
Carles Gil New England Revolution Ativo 150 / 122 40% 1 17.09.2026 -
Rafael Navarro St. Louis CITY SC Ativo 127 / 128 40% 1 17.09.2026 -
Kagiso Malinga Bidvest Wits Ativo 103 / 93 40% 1 13.09.2026 -
Ramiro Ruiz Rodríguez Atlético Tucumán Ativo 129 / 130 40% 1 12.09.2026 -
Prince Owusu CF Montreal Ativo 101 / 110 40% 2 09.09.2026 -
Tomás Chancalay Minnesota United FC Ativo 119 / 116 40% 1 07.09.2026 -
Thomas Müller Vancouver Whitecaps Ativo 148 / 150 40% 1 03.09.2026 -
Jack Grieves Watford Ativo 106 / 88 40% 1 03.09.2026 -
Jeong Sang-Bin St. Louis CITY SC Ativo 104 / 119 40% 1 01.09.2026 -
Pep Biel Charlotte Football Club Ativo 141 / 141 40% 1 30.08.2026 -
Anderson Julio FC Dallas Ativo 110 / 126 40% 1 30.08.2026 Mais informações
Jordan Morris Seattle Sounders Ativo 123 / 117 40% 1 29.08.2026 -
Tai Baribo DC United Ativo 111 / 120 40% 2 27.08.2026 -
Matty Stevens AFC Wimbledon Ativo 102 / 104 40% 1 27.08.2026 -
Antoine Griezmann Orlando City Ativo 138 / 139 40% 4 15.08.2026 -
Guilherme Houston Dynamo Ativo 129 / 133 40% 1 15.08.2026 -
Marcus Browne AFC Wimbledon Ativo 84 / 123 40% 1 06.08.2026 -
Fiacre Ntwari Kaizer Chiefs Ativo 103 / 107 40% 1 01.08.2026 -